Time;durP1;ratioP1;P1;durP2;ratioP2;P2;SDS_P1;SDS_P2;PMS_P1;PMS_P2;Temp;Humidity;BMP_temperature;BMP_pressure;BME280_temperature;BME280_humidity;BME280_pressure;Samples;Min_cycle;Max_cycle;Signal;HPM_P1;HPM_P2
2022/02/11 00:06:27;;;;;;;8.40;5.00;;;;;;;4.11;100.00;102142.19;5232388;28;20486;-75
2022/02/11 00:08:59;;;;;;;10.73;5.20;;;;;;;4.10;100.00;102153.47;5228845;28;20051;-74
2022/02/11 00:11:36;;;;;;;11.13;5.55;;;;;;;4.13;100.00;102145.56;5231363;28;20124;-75
2022/02/11 00:14:09;;;;;;;8.60;5.10;;;;;;;4.03;100.00;102160.59;5231492;28;20022;-75
2022/02/11 00:16:40;;;;;;;10.60;4.80;;;;;;;4.02;100.00;102148.56;5228901;28;20030;-74
2022/02/11 00:19:12;;;;;;;9.73;5.07;;;;;;;4.05;100.00;102155.34;5230279;28;20036;-76
2022/02/11 00:21:44;;;;;;;9.68;5.15;;;;;;;3.99;100.00;102150.41;5229735;28;20411;-74
2022/02/11 00:24:15;;;;;;;8.48;4.85;;;;;;;3.97;100.00;102150.44;5230607;28;20297;-75
2022/02/11 00:27:02;;;;;;;11.25;5.03;;;;;;;3.95;100.00;102148.84;5229306;28;20496;-74
2022/02/11 00:32:24;;;;;;;11.93;5.32;;;;;;;3.94;100.00;102149.72;5231295;28;20040;-78
2022/02/11 00:35:05;;;;;;;9.70;5.57;;;;;;;3.88;100.00;102140.41;5231720;28;20083;-77
2022/02/11 00:37:39;;;;;;;10.30;5.95;;;;;;;3.88;100.00;102140.41;5211812;28;20030;-75
2022/02/11 00:40:23;;;;;;;10.00;6.22;;;;;;;3.89;100.00;102144.69;5230787;28;20107;-78
2022/02/11 00:43:41;;;;;;;9.95;5.90;;;;;;;3.81;100.00;102132.00;5230312;28;20125;-74
2022/02/11 00:46:13;;;;;;;11.50;5.55;;;;;;;3.79;100.00;102144.19;5230718;28;20120;-75
2022/02/11 01:03:13;;;;;;;11.13;6.05;;;;;;;3.74;100.00;102135.72;5229771;28;20041;-75
2022/02/11 01:05:46;;;;;;;11.18;5.75;;;;;;;3.74;100.00;102140.91;5231204;28;20037;-74
2022/02/11 01:08:17;;;;;;;10.73;6.40;;;;;;;3.77;100.00;102145.13;5229924;28;20116;-75
2022/02/11 01:10:49;;;;;;;8.88;5.90;;;;;;;3.75;100.00;102144.34;5230869;28;20120;-75
2022/02/11 01:13:20;;;;;;;11.88;6.03;;;;;;;3.72;100.00;102145.31;5228737;28;20429;-74
2022/02/11 01:15:59;;;;;;;11.07;5.93;;;;;;;3.63;100.00;102130.91;5230806;28;20056;-75
2022/02/11 01:18:30;;;;;;;12.15;6.55;;;;;;;3.70;100.00;102146.25;5228467;28;20339;-74
2022/02/11 01:21:08;;;;;;;13.45;6.05;;;;;;;3.70;100.00;102147.09;5228880;28;20025;-75
2022/02/11 01:23:55;;;;;;;14.00;5.63;;;;;;;3.69;100.00;102140.22;5224555;28;20108;-75
2022/02/11 01:26:51;;;;;;;11.88;5.95;;;;;;;3.68;100.00;102140.28;5229194;28;20029;-73
2022/02/11 01:35:01;;;;;;;12.00;6.57;;;;;;;3.59;100.00;102144.88;5230641;28;20042;-74
2022/02/11 01:37:55;;;;;;;11.95;6.43;;;;;;;3.58;100.00;102147.53;5228962;28;20022;-75
2022/02/11 01:41:06;;;;;;;11.50;6.70;;;;;;;3.61;100.00;102145.69;5228544;28;20092;-73
2022/02/11 01:51:46;;;;;;;11.38;6.55;;;;;;;3.74;100.00;102153.88;5228884;28;20044;-75
2022/02/11 01:57:02;;;;;;;11.98;6.47;;;;;;;3.75;100.00;102144.34;5231030;28;20041;-75
2022/02/11 02:00:12;;;;;;;11.07;6.80;;;;;;;3.74;100.00;102151.28;5228526;28;20091;-75
2022/02/11 02:05:37;;;;;;;16.20;6.82;;;;;;;3.74;100.00;102146.09;5233467;28;20032;-74
2022/02/11 02:25:12;;;;;;;10.65;5.50;;;;;;;3.90;100.00;102139.47;5231869;28;20064;-74
2022/02/11 02:50:19;;;;;;;14.05;6.07;;;;;;;4.25;100.00;102147.69;5234082;28;20030;-76
2022/02/11 02:58:33;;;;;;;12.57;5.00;;;;;;;4.28;100.00;102150.19;5231331;28;20034;-74
2022/02/11 03:35:15;;;;;;;11.65;3.72;;;;;;;4.47;100.00;102155.53;5232732;28;20103;-75
2022/02/11 03:57:20;;;;;;;11.70;2.88;;;;;;;4.88;100.00;102192.84;5233650;28;20156;-76
2022/02/11 04:08:36;;;;;;;10.38;2.55;;;;;;;5.14;100.00;102206.53;5230561;28;20121;-75
2022/02/11 04:55:56;;;;;;;11.45;2.00;;;;;;;5.01;100.00;102297.09;5230935;28;20045;-76
2022/02/11 05:01:19;;;;;;;11.55;2.38;;;;;;;5.00;100.00;102312.72;5229490;28;20284;-76
2022/02/11 05:03:50;;;;;;;15.73;3.15;;;;;;;4.97;100.00;102324.09;5231726;28;20383;-76
2022/02/11 05:06:23;;;;;;;12.63;2.90;;;;;;;4.98;100.00;102318.00;5229047;28;20159;-75
2022/02/11 05:08:56;;;;;;;17.63;3.60;;;;;;;4.96;100.00;102327.56;5231222;28;20071;-75
2022/02/11 05:11:29;;;;;;;14.00;3.03;;;;;;;5.03;100.00;102328.19;5230523;28;20025;-75
2022/02/11 05:14:00;;;;;;;18.80;3.73;;;;;;;5.09;100.00;102336.63;5231112;28;20081;-76
2022/02/11 05:16:31;;;;;;;10.65;2.83;;;;;;;5.02;100.00;102332.56;5229481;28;20052;-74
2022/02/11 05:19:03;;;;;;;18.95;3.88;;;;;;;4.99;100.00;102340.47;5230071;28;20026;-75
2022/02/11 05:21:34;;;;;;;16.90;3.97;;;;;;;5.00;100.00;102347.38;5212953;28;20395;-76
2022/02/11 05:24:05;;;;;;;16.55;4.22;;;;;;;4.98;100.00;102362.16;5230803;28;20025;-76
2022/02/11 05:26:37;;;;;;;24.67;3.80;;;;;;;4.97;100.00;102349.22;5229570;28;20502;-75
2022/02/11 05:29:08;;;;;;;14.25;3.03;;;;;;;4.92;100.00;102348.53;5231384;28;20040;-75
2022/02/11 05:31:39;;;;;;;17.23;3.75;;;;;;;4.86;100.00;102350.47;5231411;28;20030;-76
2022/02/11 05:34:11;;;;;;;13.20;3.35;;;;;;;4.94;100.00;102363.16;5230480;28;20474;-76
2022/02/11 05:36:42;;;;;;;20.05;4.28;;;;;;;4.95;100.00;102369.19;5231010;28;20080;-76
2022/02/11 05:39:13;;;;;;;15.30;3.95;;;;;;;4.92;100.00;102380.53;5232992;28;20033;-75
2022/02/11 05:41:45;;;;;;;21.25;4.00;;;;;;;4.99;100.00;102402.78;5234838;28;20025;-76
2022/02/11 05:44:16;;;;;;;16.35;3.30;;;;;;;5.03;100.00;102393.97;5234872;28;20021;-76
2022/02/11 05:46:47;;;;;;;18.80;4.93;;;;;;;5.03;100.00;102401.78;5235051;28;20116;-76
2022/02/11 05:49:18;;;;;;;14.82;3.50;;;;;;;5.02;100.00;102407.88;5233851;28;20032;-75
2022/02/11 05:51:50;;;;;;;16.52;3.22;;;;;;;5.09;100.00;102414.56;5233450;28;20039;-76
2022/02/11 05:54:21;;;;;;;18.73;4.35;;;;;;;5.10;100.00;102416.22;5234714;28;20032;-76
2022/02/11 05:56:52;;;;;;;20.85;4.05;;;;;;;5.17;100.00;102432.44;5235468;28;20029;-76
2022/02/11 05:59:24;;;;;;;18.95;4.43;;;;;;;5.18;100.00;102431.53;5234047;28;20070;-75
2022/02/11 06:01:55;;;;;;;18.80;3.92;;;;;;;5.20;100.00;102436.69;5235351;28;20025;-76
2022/02/11 06:04:26;;;;;;;29.38;5.03;;;;;;;5.14;100.00;102427.38;5235121;28;20056;-74
2022/02/11 06:06:59;;;;;;;16.73;4.57;;;;;;;5.08;100.00;102418.06;5234814;28;20025;-76
2022/02/11 06:09:30;;;;;;;22.35;4.18;;;;;;;5.15;100.00;102444.63;5214260;28;20049;-75
2022/02/11 06:12:02;;;;;;;18.60;4.32;;;;;;;5.13;100.00;102443.88;5234560;28;20083;-75
2022/02/11 06:14:36;;;;;;;22.70;4.35;;;;;;;5.10;100.00;102447.41;5235236;28;20467;-76
2022/02/11 06:17:07;;;;;;;22.70;4.55;;;;;;;5.10;100.00;102451.75;5234822;28;20079;-76
2022/02/11 06:19:40;;;;;;;17.88;4.20;;;;;;;5.12;100.00;102465.56;5233561;28;20119;-76
2022/02/11 06:22:11;;;;;;;22.80;4.57;;;;;;;5.13;100.00;102447.31;5235398;28;20026;-76
2022/02/11 06:24:43;;;;;;;19.52;4.20;;;;;;;5.15;100.00;102464.56;5234829;28;20025;-76
2022/02/11 06:27:17;;;;;;;26.63;4.30;;;;;;;5.11;100.00;102475.09;5233528;28;20040;-75
2022/02/11 06:29:49;;;;;;;20.17;4.90;;;;;;;5.11;100.00;102474.22;5232764;28;20033;-76
2022/02/11 06:32:20;;;;;;;23.23;4.28;;;;;;;5.04;100.00;102477.97;5233033;28;20040;-76
2022/02/11 06:34:55;;;;;;;31.15;5.80;;;;;;;5.02;100.00;102480.59;5233102;28;20047;-77
2022/02/11 06:37:27;;;;;;;18.92;4.07;;;;;;;5.01;100.00;102494.50;5233804;28;20037;-75
2022/02/11 06:39:58;;;;;;;22.38;4.35;;;;;;;5.01;100.00;102502.31;5231842;28;20394;-76
2022/02/11 06:42:29;;;;;;;19.13;3.80;;;;;;;5.05;100.00;102509.09;5231938;28;20160;-74
2022/02/11 06:45:02;;;;;;;17.25;3.63;;;;;;;5.12;100.00;102504.53;5231692;28;20036;-75
2022/02/11 06:47:33;;;;;;;15.57;3.35;;;;;;;4.98;100.00;102492.00;5232111;28;20545;-76
2022/02/11 06:50:05;;;;;;;13.98;3.45;;;;;;;5.10;100.00;102521.91;5231022;28;20029;-76
2022/02/11 06:52:37;;;;;;;20.90;3.63;;;;;;;5.10;100.00;102521.91;5233594;28;20056;-76
2022/02/11 06:55:09;;;;;;;21.48;3.75;;;;;;;5.13;100.00;102532.19;5234413;28;20542;-77
2022/02/11 06:57:42;;;;;;;16.90;3.38;;;;;;;5.16;100.00;102534.69;5233053;28;20029;-75
2022/02/11 07:00:14;;;;;;;18.05;3.28;;;;;;;5.21;100.00;102547.50;5233172;28;20037;-75
2022/02/11 07:02:45;;;;;;;16.75;2.80;;;;;;;5.16;100.00;102544.25;5232249;28;20532;-75
2022/02/11 07:05:18;;;;;;;16.95;3.35;;;;;;;5.29;100.00;102561.09;5234061;28;20022;-76
2022/02/11 07:07:50;;;;;;;13.82;2.92;;;;;;;5.28;100.00;102572.38;5227037;28;20018;-74
2022/02/11 07:10:21;;;;;;;15.75;3.25;;;;;;;5.24;100.00;102571.63;5226764;28;20047;-75
2022/02/11 07:12:52;;;;;;;16.02;3.42;;;;;;;5.29;100.00;102581.88;5232258;28;20032;-74
2022/02/11 07:15:24;;;;;;;18.88;3.92;;;;;;;5.24;100.00;102600.22;5232949;28;20459;-74
2022/02/11 07:17:55;;;;;;;8.93;2.58;;;;;;;5.19;100.00;102590.88;5231085;28;20045;-74
2022/02/11 07:20:27;;;;;;;15.23;3.13;;;;;;;5.22;100.00;102607.22;5229536;28;20858;-74
2022/02/11 07:22:58;;;;;;;15.00;2.92;;;;;;;5.18;100.00;102617.75;5230588;28;20026;-73
2022/02/11 07:25:30;;;;;;;15.85;2.80;;;;;;;5.17;100.00;102623.88;5230799;28;20525;-74
2022/02/11 07:28:01;;;;;;;14.20;2.97;;;;;;;5.06;100.00;102627.66;5229290;28;20116;-74
2022/02/11 07:30:33;;;;;;;15.95;3.15;;;;;;;5.07;100.00;102631.94;5232438;28;20032;-75
2022/02/11 07:33:04;;;;;;;13.32;2.60;;;;;;;5.07;100.00;102638.91;5230633;28;20033;-76
2022/02/11 07:35:35;;;;;;;14.73;2.72;;;;;;;5.09;100.00;102645.75;5233125;28;20049;-74
2022/02/11 07:38:07;;;;;;;15.82;4.05;;;;;;;5.03;100.00;102650.28;5233545;28;20561;-74
2022/02/11 07:40:39;;;;;;;16.83;3.53;;;;;;;5.10;100.00;102657.00;5232150;28;20021;-75
2022/02/11 07:43:10;;;;;;;9.65;2.05;;;;;;;5.09;100.00;102657.91;5231349;28;20036;-74
2022/02/11 07:45:42;;;;;;;14.07;2.88;;;;;;;5.07;100.00;102646.69;5232697;28;20025;-74
2022/02/11 07:48:13;;;;;;;13.00;2.67;;;;;;;5.18;100.00;102660.19;5230127;28;20048;-73
2022/02/11 07:50:44;;;;;;;21.25;3.92;;;;;;;5.23;100.00;102662.66;5232715;28;20028;-74
2022/02/11 07:53:16;;;;;;;17.98;3.20;;;;;;;5.28;100.00;102674.56;5231845;28;20067;-75
2022/02/11 07:55:47;;;;;;;14.88;2.55;;;;;;;5.32;100.00;102691.75;5233527;28;20021;-74
2022/02/11 07:58:20;;;;;;;13.07;3.13;;;;;;;5.20;100.00;102718.16;5233354;28;20095;-74
2022/02/11 08:00:51;;;;;;;14.32;3.10;;;;;;;5.14;100.00;102715.75;5231543;28;20029;-74
2022/02/11 08:03:23;;;;;;;13.43;3.35;;;;;;;5.06;100.00;102717.75;5232466;28;20036;-74
2022/02/11 08:05:54;;;;;;;14.30;3.25;;;;;;;4.99;100.00;102729.22;5231639;28;20030;-75
2022/02/11 08:08:31;;;;;;;10.93;2.45;;;;;;;4.95;100.00;102744.03;5231153;28;20120;-75
2022/02/11 08:11:02;;;;;;;10.80;2.67;;;;;;;4.96;100.00;102748.34;5231083;28;20104;-74
2022/02/11 08:13:36;;;;;;;11.82;3.03;;;;;;;4.91;100.00;102746.78;5232998;28;20155;-74
2022/02/11 08:16:08;;;;;;;15.23;2.42;;;;;;;4.97;100.00;102757.84;5230587;28;20022;-74
2022/02/11 08:18:40;;;;;;;14.68;2.95;;;;;;;5.04;100.00;102771.50;5231132;28;20044;-74
2022/02/11 08:21:12;;;;;;;15.23;3.30;;;;;;;5.07;100.00;102786.97;5228565;28;20030;-74
2022/02/11 08:23:44;;;;;;;9.73;2.60;;;;;;;5.05;100.00;102787.03;5231996;28;20065;-75
2022/02/11 08:26:15;;;;;;;12.65;2.72;;;;;;;4.95;100.00;102796.00;5231805;28;20032;-76
2022/02/11 08:28:46;;;;;;;14.23;2.80;;;;;;;4.93;100.00;102802.16;5230525;28;20080;-75
2022/02/11 08:31:18;;;;;;;11.23;2.45;;;;;;;4.86;100.00;102801.47;5232122;28;20438;-74
2022/02/11 08:33:51;;;;;;;16.20;3.03;;;;;;;4.74;100.00;102781.91;5231026;28;20112;-74
2022/02/11 08:36:22;;;;;;;14.63;3.15;;;;;;;4.76;100.00;102802.63;5213832;28;20021;-74
2022/02/11 08:38:55;;;;;;;11.82;2.45;;;;;;;4.72;100.00;102803.63;5228884;28;20446;-74
2022/02/11 08:41:27;;;;;;;14.77;2.75;;;;;;;4.82;100.00;102818.03;5229972;28;20091;-73
2022/02/11 08:43:58;;;;;;;10.82;1.98;;;;;;;4.86;100.00;102820.50;5231092;28;20462;-77
2022/02/11 08:46:30;;;;;;;14.85;3.00;;;;;;;4.87;100.00;102823.94;5231003;28;20021;-74
2022/02/11 08:49:01;;;;;;;11.93;2.63;;;;;;;4.88;100.00;102834.28;5230522;28;20037;-74
2022/02/11 08:51:33;;;;;;;12.68;3.03;;;;;;;4.87;100.00;102837.78;5228376;28;20037;-75
2022/02/11 08:54:04;;;;;;;11.70;3.35;;;;;;;4.87;100.00;102831.75;5217706;28;20031;-75
2022/02/11 08:56:39;;;;;;;14.60;3.20;;;;;;;5.01;100.00;102852.97;5230633;28;20048;-74
2022/02/11 08:59:10;;;;;;;15.32;2.72;;;;;;;5.08;100.00;102854.50;5229766;28;20505;-74
2022/02/11 09:01:41;;;;;;;17.83;3.40;;;;;;;5.11;100.00;102853.53;5231275;28;20029;-74
2022/02/11 09:04:13;;;;;;;15.32;3.55;;;;;;;5.14;100.00;102858.66;5231151;28;20028;-74
2022/02/11 09:06:46;;;;;;;11.55;2.75;;;;;;;5.08;100.00;102849.31;5230900;28;20036;-75
2022/02/11 09:09:17;;;;;;;16.92;2.92;;;;;;;5.20;100.00;102861.06;5229852;28;20491;-76
2022/02/11 09:11:49;;;;;;;12.38;2.85;;;;;;;5.20;100.00;102858.47;5230026;28;20045;-74
2022/02/11 09:14:20;;;;;;;16.40;2.92;;;;;;;5.23;100.00;102868.78;5232995;28;20496;-74
2022/02/11 09:16:51;;;;;;;15.43;2.58;;;;;;;5.25;100.00;102866.13;5231876;28;20041;-75
2022/02/11 09:19:23;;;;;;;14.13;3.03;;;;;;;5.25;100.00;102871.31;5232991;28;20446;-74
2022/02/11 09:21:54;;;;;;;12.98;2.65;;;;;;;5.27;100.00;102866.94;5234923;28;20830;-76
2022/02/11 09:24:25;;;;;;;17.00;3.72;;;;;;;5.38;100.00;102872.69;5234113;28;20471;-77
2022/02/11 09:26:57;;;;;;;17.33;2.72;;;;;;;5.46;100.00;102873.28;5233255;28;20422;-74
2022/02/11 09:29:28;;;;;;;19.58;3.85;;;;;;;5.56;100.00;102885.06;5233319;28;20075;-75
2022/02/11 09:31:59;;;;;;;16.98;4.18;;;;;;;5.61;100.00;102883.22;5234031;28;20029;-75
2022/02/11 09:34:32;;;;;;;17.75;3.88;;;;;;;5.66;100.00;102887.41;5234509;28;20486;-74
2022/02/11 09:37:04;;;;;;;15.07;3.28;;;;;;;5.65;100.00;102901.31;5232209;28;20124;-75
2022/02/11 09:39:35;;;;;;;15.70;3.38;;;;;;;5.66;100.00;102897.81;5231722;28;20059;-74
2022/02/11 09:42:08;;;;;;;15.57;2.90;;;;;;;5.63;100.00;102903.09;5233027;28;20472;-75
2022/02/11 09:44:39;;;;;;;14.03;3.20;;;;;;;5.60;100.00;102919.63;5233116;28;20025;-75
2022/02/11 09:47:11;;;;;;;17.20;2.78;;;;;;;5.50;100.00;102921.69;5230017;28;20040;-75
2022/02/11 09:49:45;;;;;;;14.77;2.85;;;;;;;5.46;100.00;102921.81;5235276;28;20099;-74
2022/02/11 09:52:18;;;;;;;15.65;3.35;;;;;;;5.41;100.00;102915.91;5234427;28;20128;-75
2022/02/11 09:55:31;;;;;;;14.18;3.22;;;;;;;5.41;100.00;102916.75;5234401;28;20029;-74
2022/02/11 09:57:42;;;;;;;14.80;3.30;;;;;;;5.43;100.00;102925.34;5232884;28;20115;-76
2022/02/11 10:00:14;;;;;;;19.60;3.03;;;;;;;5.51;100.00;102919.94;5234546;28;20431;-75
2022/02/11 10:02:52;;;;;;;24.48;4.32;;;;;;;5.67;100.00;102925.50;5234112;28;20116;-76
2022/02/11 10:05:31;;;;;;;20.73;2.80;;;;;;;5.75;100.00;102942.56;5233315;28;20048;-76
2022/02/11 10:08:02;;;;;;;18.98;3.90;;;;;;;5.79;100.00;102938.13;5233850;28;20042;-74
2022/02/11 10:10:42;;;;;;;15.43;3.03;;;;;;;5.83;100.00;102939.72;5234955;28;20032;-75
2022/02/11 10:13:17;;;;;;;17.48;3.50;;;;;;;5.96;100.00;102948.06;5234013;28;20493;-74
2022/02/11 10:15:52;;;;;;;18.83;3.60;;;;;;;6.05;100.00;102953.78;5234884;28;20486;-74
2022/02/11 10:18:31;;;;;;;14.40;3.20;;;;;;;6.23;100.00;102952.34;5233486;28;20171;-74
2022/02/11 10:21:05;;;;;;;15.50;3.42;;;;;;;6.30;100.00;102951.25;5234321;28;20029;-74
2022/02/11 10:23:41;;;;;;;23.13;3.90;;;;;;;6.40;100.00;102964.81;5233602;28;20028;-74
2022/02/11 10:26:17;;;;;;;12.55;2.95;;;;;;;6.54;100.00;102973.00;5231956;28;20025;-75
2022/02/11 10:28:51;;;;;;;16.77;2.78;;;;;;;6.62;100.00;102975.34;5233099;28;20498;-75
2022/02/11 10:31:30;;;;;;;12.50;3.20;;;;;;;6.63;100.00;102968.38;5233026;28;20033;-75
2022/02/11 10:34:15;;;;;;;18.42;3.88;;;;;;;6.80;100.00;102976.50;5232407;28;20128;-74
2022/02/11 10:36:48;;;;;;;16.38;3.30;;;;;;;6.83;100.00;102979.00;5233081;28;20025;-75
2022/02/11 10:39:29;;;;;;;18.70;3.35;;;;;;;7.01;100.00;102985.31;5232030;28;20029;-74
2022/02/11 10:42:08;;;;;;;12.05;3.03;;;;;;;7.06;100.00;102993.81;5233851;28;20522;-74
2022/02/11 10:44:42;;;;;;;13.18;3.45;;;;;;;7.06;100.00;102997.28;5229878;28;20045;-75
2022/02/11 10:47:16;;;;;;;13.02;2.85;;;;;;;7.21;100.00;102995.03;5230894;28;20030;-75
2022/02/11 10:49:48;;;;;;;13.52;2.30;;;;;;;7.12;100.00;103013.59;5232440;28;20553;-75
2022/02/11 10:52:22;;;;;;;15.20;2.97;;;;;;;7.04;100.00;103008.66;5233191;28;20033;-75
2022/02/11 10:54:55;;;;;;;13.23;3.22;;;;;;;6.97;100.00;103008.03;5233294;28;20425;-74
2022/02/11 10:57:31;;;;;;;16.38;3.60;;;;;;;6.93;100.00;103010.78;5231424;28;20036;-77
2022/02/11 11:00:05;;;;;;;12.77;3.05;;;;;;;7.03;100.00;103015.63;5233500;28;20028;-74
2022/02/11 11:02:36;;;;;;;;;;;;;;;7.46;100.00;103016.69;5233809;28;20367;-74
2022/02/11 11:05:09;;;;;;;22.98;3.40;;;;;;;7.23;100.00;103019.25;5233332;28;19913;-75
2022/02/11 11:07:43;;;;;;;14.02;2.60;;;;;;;7.09;100.00;103011.97;5232243;28;20445;-75
2022/02/11 11:10:15;;;;;;;17.95;3.70;;;;;;;7.06;100.00;103012.91;5232869;28;20130;-75
2022/02/11 11:12:54;;;;;;;17.00;3.28;;;;;;;7.14;100.00;103032.63;5231377;28;20383;-74
2022/02/11 11:15:27;;;;;;;16.50;2.78;;;;;;;7.16;100.00;103021.25;5230784;28;20033;-74
2022/02/11 11:18:03;;;;;;;14.32;3.20;;;;;;;7.23;100.00;103035.75;5233365;28;20487;-75
2022/02/11 11:20:35;;;;;;;11.57;2.72;;;;;;;7.30;100.00;103037.25;5229528;28;20528;-75
2022/02/11 11:23:22;;;;;;;13.70;3.00;;;;;;;7.55;100.00;103041.59;5226821;28;20043;-75
2022/02/11 11:26:02;;;;;;;10.48;2.17;;;;;;;7.47;100.00;103036.66;5228007;28;20029;-76
2022/02/11 11:28:42;;;;;;;12.40;2.60;;;;;;;7.70;100.00;103048.00;5229081;28;20021;-75
2022/02/11 11:31:23;;;;;;;11.68;2.22;;;;;;;7.86;100.00;103051.72;5229893;28;20475;-75
2022/02/11 11:34:16;;;;;;;15.27;2.65;;;;;;;8.08;100.00;103043.91;5224589;28;20018;-75
2022/02/11 11:36:49;;;;;;;14.15;3.05;;;;;;;8.01;100.00;103056.34;5228513;28;20045;-76
2022/02/11 11:39:21;;;;;;;9.18;2.70;;;;;;;8.02;100.00;103051.97;5230165;28;20116;-77
2022/02/11 11:42:14;;;;;;;14.32;2.65;;;;;;;8.16;100.00;103054.06;5229666;28;20178;-76
2022/02/11 11:44:53;;;;;;;9.18;1.95;;;;;;;7.95;100.00;103045.28;5229971;28;20488;-76
2022/02/11 11:47:28;;;;;;;13.30;2.53;;;;;;;7.73;100.00;103063.53;5231124;28;20071;-75
2022/02/11 11:50:00;;;;;;;13.57;2.40;;;;;;;7.63;100.00;103049.13;5223537;28;20026;-75
2022/02/11 11:52:39;;;;;;;12.77;2.40;;;;;;;7.63;100.00;103062.16;5216740;28;20068;-76
2022/02/11 11:55:20;;;;;;;14.75;3.08;;;;;;;7.53;100.00;103062.50;5230875;28;20474;-75
2022/02/11 11:57:52;;;;;;;12.98;3.40;;;;;;;7.39;100.00;103072.59;5230597;28;20065;-75
2022/02/11 12:00:38;;;;;;;13.20;2.80;;;;;;;7.46;100.00;103076.69;5229911;28;20029;-75
2022/02/11 12:03:10;;;;;;;12.73;2.55;;;;;;;7.31;100.00;103075.47;5231125;28;20113;-75
2022/02/11 12:05:53;;;;;;;17.25;3.05;;;;;;;7.36;100.00;103072.69;5231944;28;20494;-75
2022/02/11 12:08:28;;;;;;;10.88;2.30;;;;;;;7.44;100.00;103072.41;5229179;28;20041;-76
2022/02/11 12:11:00;;;;;;;12.88;3.38;;;;;;;7.38;100.00;103085.66;5230553;28;20029;-76
2022/02/11 12:13:32;;;;;;;15.80;3.20;;;;;;;7.37;100.00;103095.25;5230752;28;20490;-75
2022/02/11 12:16:05;;;;;;;14.48;2.50;;;;;;;7.40;100.00;103094.31;5230623;28;20033;-75
2022/02/11 12:18:36;;;;;;;12.32;2.67;;;;;;;7.52;100.00;103112.13;5230090;28;20599;-75
2022/02/11 12:21:07;;;;;;;9.38;2.03;;;;;;;7.60;100.00;103094.44;5231427;28;20033;-77
2022/02/11 12:29:21;;;;;;;16.88;2.83;;;;;;;7.85;100.00;103083.09;5230432;28;20120;-74
2022/02/11 12:31:55;;;;;;;12.68;2.22;;;;;;;7.85;100.00;103098.75;5231426;28;20099;-74
2022/02/11 12:34:26;;;;;;;10.10;2.80;;;;;;;7.76;100.00;103099.94;5232421;28;20096;-74
2022/02/11 12:37:09;;;;;;;8.98;2.53;;;;;;;7.80;100.00;103102.41;5229963;28;20482;-76
2022/02/11 12:39:40;;;;;;;8.20;1.90;;;;;;;7.76;100.00;103089.50;5229272;28;20471;-73
2022/02/11 12:42:19;;;;;;;8.80;1.98;;;;;;;7.71;100.00;103099.25;5229910;28;20033;-75
2022/02/11 12:44:51;;;;;;;12.98;2.58;;;;;;;7.78;100.00;103101.59;5230534;28;20601;-75
2022/02/11 12:47:22;;;;;;;10.05;2.05;;;;;;;7.84;100.00;103108.34;5229347;28;20025;-74
2022/02/11 12:49:54;;;;;;;11.95;2.92;;;;;;;7.91;100.00;103099.34;5230020;28;20049;-76
2022/02/11 12:52:28;;;;;;;10.57;2.50;;;;;;;8.05;100.00;103099.69;5231137;28;20116;-74
2022/02/11 12:55:10;;;;;;;14.40;2.30;;;;;;;8.12;100.00;103102.09;5230299;28;20029;-76
2022/02/11 12:57:44;;;;;;;10.07;2.00;;;;;;;8.24;100.00;103102.44;5230749;28;20120;-74
2022/02/11 13:00:20;;;;;;;7.97;1.92;;;;;;;8.34;100.00;103102.13;5231421;28;20117;-74
2022/02/11 13:02:58;;;;;;;9.35;2.05;;;;;;;8.25;79.98;103105.91;5229623;28;20037;-74
2022/02/11 13:05:36;;;;;;;5.03;1.38;;;;;;;8.23;70.00;103102.53;5229634;28;20574;-74
2022/02/11 13:08:08;;;;;;;9.27;1.85;;;;;;;8.07;62.87;103107.50;5252120;22;20034;-72
2022/02/11 13:10:40;;;;;;;7.55;1.52;;;;;;;8.03;62.34;103105.88;5209426;28;20493;-74
2022/02/11 13:13:17;;;;;;;6.63;1.52;;;;;;;8.04;59.78;103118.03;5214811;28;20454;-74
2022/02/11 13:15:48;;;;;;;7.50;1.70;;;;;;;7.96;60.71;103099.22;5217042;28;20031;-74
2022/02/11 13:18:21;;;;;;;4.95;1.20;;;;;;;8.07;58.48;103115.31;5215501;28;20022;-74
2022/02/11 13:20:54;;;;;;;;;;;;;;;8.42;58.28;103116.59;5214239;28;20025;-74
2022/02/11 13:23:26;;;;;;;8.73;1.75;;;;;;;8.03;58.52;103124.16;5213265;28;19919;-75
2022/02/11 13:25:58;;;;;;;6.10;1.02;;;;;;;8.07;57.24;103114.44;5214471;28;20063;-74
2022/02/11 13:28:48;;;;;;;7.37;1.50;;;;;;;8.27;59.91;103107.56;5213237;28;20033;-74
2022/02/11 13:31:20;;;;;;;5.53;1.50;;;;;;;8.18;59.32;103114.88;5216264;28;20299;-74
2022/02/11 13:34:05;;;;;;;7.97;2.03;;;;;;;8.31;58.49;103115.28;5214306;28;20026;-74
2022/02/11 13:36:36;;;;;;;7.72;1.45;;;;;;;8.07;57.77;103115.31;5213371;28;20441;-74
2022/02/11 13:39:07;;;;;;;9.50;1.83;;;;;;;8.02;58.96;103120.69;5212526;28;20113;-74
2022/02/11 13:41:39;;;;;;;6.30;1.52;;;;;;;7.99;60.68;103126.06;5213070;28;20262;-74
2022/02/11 13:44:12;;;;;;;5.22;1.85;;;;;;;8.12;56.70;103120.34;5213451;28;20076;-74
2022/02/11 13:46:52;;;;;;;4.53;1.42;;;;;;;8.27;58.42;103120.63;5213151;28;20029;-74
2022/02/11 13:49:23;;;;;;;8.30;1.75;;;;;;;8.32;57.80;103124.81;5212015;28;20028;-74
2022/02/11 13:55:05;;;;;;;7.00;1.67;;;;;;;8.73;57.57;103131.03;5212422;28;20041;-74
2022/02/11 13:57:37;;;;;;;6.95;1.90;;;;;;;8.72;56.59;103134.56;5213294;28;20399;-75
2022/02/11 14:00:31;;;;;;;8.20;2.00;;;;;;;8.85;56.25;103137.53;5213972;28;20572;-74
2022/02/11 14:03:03;;;;;;;6.47;1.30;;;;;;;8.81;55.35;103133.34;5217048;28;20056;-74
2022/02/11 14:05:45;;;;;;;6.50;1.60;;;;;;;8.88;54.38;103137.41;5215081;28;20117;-74
2022/02/11 14:08:17;;;;;;;8.05;2.00;;;;;;;8.85;55.40;103142.75;5217576;28;20046;-74
2022/02/11 14:11:09;;;;;;;9.50;1.60;;;;;;;9.08;56.94;103136.59;5215274;28;20076;-75
2022/02/11 14:13:41;;;;;;;7.68;1.60;;;;;;;8.91;55.60;103127.69;5215664;28;20042;-74
2022/02/11 14:16:14;;;;;;;7.07;1.73;;;;;;;8.93;54.18;103135.44;5216304;28;20056;-74
2022/02/11 14:18:45;;;;;;;5.65;1.50;;;;;;;9.00;50.70;103140.38;5216308;28;20428;-74
2022/02/11 14:21:17;;;;;;;6.88;1.50;;;;;;;8.91;51.74;103139.91;5217484;28;20052;-74
2022/02/11 14:23:49;;;;;;;7.00;1.52;;;;;;;8.95;51.23;103144.94;5215914;28;20443;-74
2022/02/11 14:26:20;;;;;;;6.90;1.42;;;;;;;8.77;46.33;103146.53;5217234;28;20108;-74
2022/02/11 14:28:53;;;;;;;7.00;1.80;;;;;;;8.80;45.75;103150.78;5216814;28;20026;-74
2022/02/11 14:31:25;;;;;;;3.42;1.20;;;;;;;8.82;47.08;103162.03;5206507;28;20028;-74
2022/02/11 14:33:56;;;;;;;6.95;1.48;;;;;;;8.67;44.81;103141.72;5217099;28;20038;-74
2022/02/11 14:36:27;;;;;;;6.97;1.20;;;;;;;8.78;45.16;103143.00;5217985;28;20356;-74
2022/02/11 14:38:59;;;;;;;8.07;1.63;;;;;;;8.73;45.61;103144.13;5215198;28;20026;-74
2022/02/11 14:41:48;;;;;;;8.23;1.52;;;;;;;8.74;46.23;103151.03;5216470;28;20068;-74
2022/02/11 14:44:24;;;;;;;9.73;1.50;;;;;;;8.84;45.93;103159.38;5218683;28;20032;-74
2022/02/11 14:46:57;;;;;;;5.30;1.60;;;;;;;8.70;47.76;103155.53;5217925;28;20124;-74
2022/02/11 14:49:29;;;;;;;9.15;1.75;;;;;;;8.65;47.08;103167.94;5216249;28;20623;-74
2022/02/11 14:52:04;;;;;;;5.70;1.50;;;;;;;8.68;47.25;103165.22;5216798;28;20040;-74
2022/02/11 14:54:36;;;;;;;3.40;1.17;;;;;;;8.60;45.51;103169.91;5217282;28;20034;-74
2022/02/11 14:57:07;;;;;;;6.78;1.83;;;;;;;8.38;48.47;103154.19;5216875;28;20026;-74
2022/02/11 14:59:39;;;;;;;7.43;1.52;;;;;;;8.32;50.06;103164.00;5215470;28;20315;-74
2022/02/11 15:02:10;;;;;;;7.70;2.05;;;;;;;8.26;50.23;103171.16;5216346;28;20041;-74
2022/02/11 15:04:42;;;;;;;6.05;1.52;;;;;;;8.21;52.15;103177.44;5216321;28;20021;-74
2022/02/11 15:07:13;;;;;;;8.90;1.92;;;;;;;8.17;52.69;103181.94;5216976;28;20109;-74
2022/02/11 15:09:45;;;;;;;9.23;2.03;;;;;;;8.05;54.04;103178.00;5215161;28;20119;-74
2022/02/11 15:12:16;;;;;;;7.90;1.83;;;;;;;8.14;55.33;103189.88;5214809;28;20083;-74
2022/02/11 15:14:48;;;;;;;9.52;2.13;;;;;;;8.09;54.95;103181.38;5214126;28;20037;-74
2022/02/11 15:17:19;;;;;;;12.00;2.50;;;;;;;8.08;57.04;103190.13;5216053;28;20025;-74
2022/02/11 15:19:50;;;;;;;8.55;2.15;;;;;;;8.12;57.72;103189.09;5216102;28;20076;-74